CheckWX is a tool to help pilots better visualize weather data.  It is not intended as a substitute for an official pre-flight weather briefing.

13:05:01 UTC

SLTR TAF
Teniente Av. Jorge Henrich Arauz Airport
Trinidad, Bolivia
TAF SLTR 181000Z 1812/1912 00000KT 5000 FU NSC TX35/1820Z TN17/1911Z TEMPO 1814/1817 33010KT 8000

Aug-18@
12:00 UTC

Aug-18 @ 12:00 UTC

Aug-19@
12:00 UTC

Aug-19 @ 12:00 UTC

TAF SLTR 181000Z 1812/1912 00000KT 5000 FU NSC TX35/1820Z TN17/1911Z
Conditions
Smoke
Cloud Levels
  • No significant clouds

Aug-18@
14:00 UTC

Aug-18 @ 14:00 UTC

Aug-18@
17:00 UTC

Aug-18 @ 17:00 UTC

TEMPO 1814/1817 33010KT 8000

Temporary

Temporary Changes expected for less than half the time period

Wind
  • 330° at 10 KTS